JAL9374 RJTT-RJAA
Flight info
| Callsign | JAL9374 |
|---|---|
| Flight time | 0h 27m |
| Altitude | 6000 |
| Route | RUTAS |
| Aircraft | B77W/H-SDE1E2E3FGHIJ2J3J4J5M1RWXY/LB1D1 |
Departure
| Time | 2026-05-05 13:33 |
|---|---|
| Airport | Tokyo Haneda International Airport (RJTT) |
Arrival
| Time | 2026-05-05 14:00 |
|---|---|
| Airport | Narita International Airport (RJAA) |
| Time | Latitude | Longitude | Altitude | Speed | Heading |
|---|---|---|---|---|---|
| 2026-05-05 13:06 | 35.54681 | 139.77185 | 28 ft | 0 kts | 59° |
| 2026-05-05 13:22 | 35.54673 | 139.77169 | 28 ft | 2 kts | 59° |
| 2026-05-05 13:22 | 35.54665 | 139.77152 | 28 ft | 2 kts | 59° |
| 2026-05-05 13:23 | 35.54657 | 139.77134 | 27 ft | 2 kts | 57° |
| 2026-05-05 13:23 | 35.54645 | 139.77121 | 28 ft | 2 kts | 13° |
| 2026-05-05 13:23 | 35.54631 | 139.77121 | 28 ft | 1 kts | 335° |
| 2026-05-05 13:23 | 35.54630 | 139.77122 | 27 ft | 0 kts | 333° |
| 2026-05-05 13:26 | 35.54637 | 139.77117 | 27 ft | 3 kts | 329° |
| 2026-05-05 13:27 | 35.54660 | 139.77099 | 28 ft | 5 kts | 329° |
| 2026-05-05 13:27 | 35.54700 | 139.77081 | 28 ft | 7 kts | 353° |
| 2026-05-05 13:27 | 35.54735 | 139.77112 | 28 ft | 7 kts | 54° |
| 2026-05-05 13:27 | 35.54770 | 139.77178 | 28 ft | 12 kts | 59° |
| 2026-05-05 13:28 | 35.54815 | 139.77273 | 28 ft | 10 kts | 60° |
| 2026-05-05 13:28 | 35.54863 | 139.77319 | 28 ft | 7 kts | 8° |
| 2026-05-05 13:28 | 35.54911 | 139.77295 | 28 ft | 9 kts | 331° |
| 2026-05-05 13:28 | 35.54969 | 139.77254 | 28 ft | 11 kts | 329° |
| 2026-05-05 13:29 | 35.55040 | 139.77203 | 28 ft | 13 kts | 330° |
| 2026-05-05 13:29 | 35.55124 | 139.77145 | 28 ft | 15 kts | 330° |
| 2026-05-05 13:29 | 35.55220 | 139.77075 | 28 ft | 17 kts | 329° |
| 2026-05-05 13:29 | 35.55277 | 139.77037 | 28 ft | 4 kts | 343° |
| 2026-05-05 13:30 | 35.55301 | 139.77048 | 28 ft | 4 kts | 37° |
| 2026-05-05 13:30 | 35.55341 | 139.77086 | 28 ft | 10 kts | 26° |
| 2026-05-05 13:30 | 35.55404 | 139.77072 | 28 ft | 10 kts | 332° |
| 2026-05-05 13:30 | 35.55473 | 139.77024 | 28 ft | 12 kts | 330° |
| 2026-05-05 13:31 | 35.55545 | 139.76975 | 28 ft | 8 kts | 338° |
| 2026-05-05 13:31 | 35.55602 | 139.76995 | 28 ft | 10 kts | 33° |
| 2026-05-05 13:31 | 35.55660 | 139.77048 | 29 ft | 11 kts | 37° |
| 2026-05-05 13:31 | 35.55695 | 139.77105 | 29 ft | 9 kts | 90° |
| 2026-05-05 13:32 | 35.55665 | 139.77146 | 29 ft | 0 kts | 149° |
| 2026-05-05 13:32 | 35.55409 | 139.77326 | 30 ft | 94 kts | 150° |
| 2026-05-05 13:32 | 35.54585 | 139.77906 | 102 ft | 169 kts | 152° |
| 2026-05-05 13:33 | 35.53554 | 139.78623 | 1185 ft | 164 kts | 153° |
| 2026-05-05 13:33 | 35.52594 | 139.79296 | 2560 ft | 158 kts | 155° |
| 2026-05-05 13:33 | 35.51585 | 139.79996 | 3342 ft | 181 kts | 155° |
| 2026-05-05 13:33 | 35.50384 | 139.80849 | 3753 ft | 220 kts | 154° |
| 2026-05-05 13:34 | 35.48970 | 139.81861 | 4385 ft | 246 kts | 152° |
| 2026-05-05 13:34 | 35.47470 | 139.82999 | 5324 ft | 260 kts | 150° |
| 2026-05-05 13:34 | 35.45934 | 139.84171 | 5898 ft | 265 kts | 150° |
| 2026-05-05 13:34 | 35.44345 | 139.85378 | 6725 ft | 271 kts | 150° |
| 2026-05-05 13:35 | 35.42729 | 139.86599 | 7933 ft | 274 kts | 150° |
| 2026-05-05 13:35 | 35.41094 | 139.87835 | 9118 ft | 278 kts | 150° |
| 2026-05-05 13:35 | 35.39429 | 139.89099 | 10262 ft | 284 kts | 150° |
| 2026-05-05 13:35 | 35.37695 | 139.90418 | 11007 ft | 306 kts | 150° |
| 2026-05-05 13:36 | 35.35796 | 139.91853 | 11362 ft | 342 kts | 150° |
| 2026-05-05 13:36 | 35.33658 | 139.93457 | 11800 ft | 372 kts | 150° |
| 2026-05-05 13:36 | 35.31419 | 139.95126 | 12694 ft | 376 kts | 150° |
| 2026-05-05 13:36 | 35.29181 | 139.96783 | 13029 ft | 387 kts | 150° |
| 2026-05-05 13:37 | 35.26835 | 139.98513 | 13022 ft | 397 kts | 150° |
| 2026-05-05 13:37 | 35.24470 | 140.00265 | 13022 ft | 397 kts | 149° |
| 2026-05-05 13:37 | 35.22274 | 140.02329 | 13016 ft | 400 kts | 138° |
| 2026-05-05 13:37 | 35.20425 | 140.04883 | 13019 ft | 402 kts | 127° |
| 2026-05-05 13:38 | 35.18994 | 140.07830 | 13014 ft | 403 kts | 116° |
| 2026-05-05 13:38 | 35.18047 | 140.11013 | 13017 ft | 403 kts | 106° |
| 2026-05-05 13:38 | 35.17591 | 140.14407 | 13016 ft | 404 kts | 95° |
| 2026-05-05 13:38 | 35.17661 | 140.17850 | 13020 ft | 406 kts | 84° |
| 2026-05-05 13:39 | 35.18250 | 140.21227 | 13013 ft | 407 kts | 73° |
| 2026-05-05 13:39 | 35.19340 | 140.24425 | 13016 ft | 409 kts | 63° |
| 2026-05-05 13:39 | 35.20859 | 140.27366 | 13022 ft | 409 kts | 55° |
| 2026-05-05 13:39 | 35.22552 | 140.30168 | 13022 ft | 410 kts | 53° |
| 2026-05-05 13:40 | 35.24270 | 140.32902 | 13026 ft | 410 kts | 52° |
| 2026-05-05 13:40 | 35.26026 | 140.35667 | 13024 ft | 411 kts | 52° |
| 2026-05-05 13:40 | 35.27788 | 140.38435 | 12988 ft | 410 kts | 52° |
| 2026-05-05 13:40 | 35.29514 | 140.41139 | 12760 ft | 407 kts | 52° |
| 2026-05-05 13:41 | 35.31265 | 140.43881 | 12356 ft | 408 kts | 52° |
| 2026-05-05 13:41 | 35.33010 | 140.46616 | 12062 ft | 408 kts | 52° |
| 2026-05-05 13:41 | 35.34762 | 140.49359 | 11758 ft | 407 kts | 52° |
| 2026-05-05 13:41 | 35.36500 | 140.52082 | 11521 ft | 405 kts | 52° |
| 2026-05-05 13:42 | 35.38217 | 140.54770 | 11265 ft | 403 kts | 52° |
| 2026-05-05 13:42 | 35.39950 | 140.57483 | 10963 ft | 404 kts | 52° |
| 2026-05-05 13:42 | 35.41681 | 140.60188 | 10715 ft | 402 kts | 52° |
| 2026-05-05 13:42 | 35.43408 | 140.62883 | 10489 ft | 401 kts | 52° |
| 2026-05-05 13:43 | 35.45120 | 140.65558 | 10327 ft | 397 kts | 52° |
| 2026-05-05 13:43 | 35.46883 | 140.68152 | 10034 ft | 396 kts | 45° |
| 2026-05-05 13:43 | 35.48982 | 140.70290 | 10023 ft | 386 kts | 33° |
| 2026-05-05 13:43 | 35.51279 | 140.71683 | 9996 ft | 348 kts | 15° |
| 2026-05-05 13:44 | 35.53499 | 140.72213 | 10011 ft | 314 kts | 5° |
| 2026-05-05 13:44 | 35.55610 | 140.72465 | 10014 ft | 300 kts | 2° |
| 2026-05-05 13:44 | 35.57678 | 140.72668 | 10015 ft | 296 kts | 2° |
| 2026-05-05 13:44 | 35.59733 | 140.72860 | 10024 ft | 295 kts | 2° |
| 2026-05-05 13:45 | 35.61783 | 140.73045 | 10029 ft | 295 kts | 1° |
| 2026-05-05 13:45 | 35.63783 | 140.72803 | 9752 ft | 286 kts | 338° |
| 2026-05-05 13:45 | 35.65570 | 140.71751 | 9365 ft | 284 kts | 327° |
| 2026-05-05 13:45 | 35.67244 | 140.70550 | 9106 ft | 280 kts | 326° |
| 2026-05-05 13:46 | 35.68930 | 140.69356 | 8755 ft | 279 kts | 327° |
| 2026-05-05 13:46 | 35.70638 | 140.68199 | 8432 ft | 278 kts | 329° |
| 2026-05-05 13:46 | 35.72351 | 140.67080 | 8120 ft | 276 kts | 329° |
| 2026-05-05 13:46 | 35.74034 | 140.66009 | 7848 ft | 274 kts | 330° |
| 2026-05-05 13:47 | 35.75731 | 140.64946 | 7536 ft | 273 kts | 331° |
| 2026-05-05 13:47 | 35.77438 | 140.63887 | 7177 ft | 274 kts | 331° |
| 2026-05-05 13:47 | 35.79142 | 140.62834 | 6885 ft | 273 kts | 331° |
| 2026-05-05 13:47 | 35.80815 | 140.61801 | 6599 ft | 270 kts | 331° |
| 2026-05-05 13:48 | 35.82491 | 140.60767 | 6300 ft | 269 kts | 330° |
| 2026-05-05 13:48 | 35.84090 | 140.59641 | 6020 ft | 258 kts | 318° |
| 2026-05-05 13:48 | 35.85266 | 140.58027 | 5587 ft | 257 kts | 304° |
| 2026-05-05 13:48 | 35.86366 | 140.56270 | 5215 ft | 260 kts | 305° |
| 2026-05-05 13:49 | 35.87471 | 140.54552 | 5264 ft | 253 kts | 305° |
| 2026-05-05 13:49 | 35.88585 | 140.52829 | 5206 ft | 259 kts | 306° |
| 2026-05-05 13:49 | 35.89720 | 140.51088 | 4848 ft | 265 kts | 306° |
| 2026-05-05 13:49 | 35.90877 | 140.49320 | 4553 ft | 263 kts | 306° |
| 2026-05-05 13:50 | 35.92027 | 140.47567 | 4246 ft | 261 kts | 306° |
| 2026-05-05 13:50 | 35.93162 | 140.45840 | 4097 ft | 255 kts | 305° |
| 2026-05-05 13:50 | 35.94275 | 140.44141 | 4035 ft | 256 kts | 305° |
| 2026-05-05 13:50 | 35.95390 | 140.42437 | 4035 ft | 259 kts | 306° |
| 2026-05-05 13:51 | 35.96522 | 140.40693 | 4029 ft | 261 kts | 304° |
| 2026-05-05 13:51 | 35.97609 | 140.38896 | 4022 ft | 261 kts | 303° |
| 2026-05-05 13:51 | 35.98680 | 140.37106 | 4014 ft | 256 kts | 303° |
| 2026-05-05 13:51 | 35.99713 | 140.35387 | 4005 ft | 243 kts | 302° |
| 2026-05-05 13:52 | 36.00570 | 140.33704 | 4001 ft | 220 kts | 284° |
| 2026-05-05 13:52 | 36.00656 | 140.31898 | 3943 ft | 210 kts | 255° |
| 2026-05-05 13:52 | 36.00177 | 140.30226 | 3866 ft | 206 kts | 239° |
| 2026-05-05 13:52 | 35.99468 | 140.28713 | 3770 ft | 199 kts | 236° |
| 2026-05-05 13:53 | 35.98776 | 140.27298 | 3699 ft | 187 kts | 236° |
| 2026-05-05 13:53 | 35.98122 | 140.25958 | 3581 ft | 178 kts | 235° |
| 2026-05-05 13:53 | 35.97353 | 140.24876 | 3456 ft | 159 kts | 211° |
| 2026-05-05 13:53 | 35.96370 | 140.24367 | 3413 ft | 148 kts | 195° |
| 2026-05-05 13:54 | 35.95431 | 140.23909 | 3327 ft | 143 kts | 200° |
| 2026-05-05 13:54 | 35.94454 | 140.23965 | 3286 ft | 147 kts | 155° |
| 2026-05-05 13:54 | 35.93669 | 140.24766 | 3224 ft | 145 kts | 146° |
| 2026-05-05 13:54 | 35.92881 | 140.25492 | 3146 ft | 141 kts | 150° |
| 2026-05-05 13:55 | 35.92062 | 140.26157 | 3079 ft | 140 kts | 152° |
| 2026-05-05 13:55 | 35.91237 | 140.26789 | 3015 ft | 139 kts | 153° |
| 2026-05-05 13:55 | 35.90413 | 140.27402 | 2927 ft | 137 kts | 153° |
| 2026-05-05 13:55 | 35.89594 | 140.28004 | 2874 ft | 136 kts | 153° |
| 2026-05-05 13:56 | 35.88808 | 140.28584 | 2724 ft | 130 kts | 152° |
| 2026-05-05 13:56 | 35.88040 | 140.29147 | 2563 ft | 126 kts | 153° |
| 2026-05-05 13:56 | 35.87282 | 140.29696 | 2408 ft | 125 kts | 153° |
| 2026-05-05 13:56 | 35.86545 | 140.30230 | 2237 ft | 124 kts | 153° |
| 2026-05-05 13:57 | 35.85801 | 140.30769 | 2042 ft | 123 kts | 152° |
| 2026-05-05 13:57 | 35.85054 | 140.31311 | 1863 ft | 124 kts | 152° |
| 2026-05-05 13:57 | 35.84317 | 140.31846 | 1697 ft | 124 kts | 152° |
| 2026-05-05 13:57 | 35.83568 | 140.32390 | 1536 ft | 124 kts | 152° |
| 2026-05-05 13:58 | 35.82822 | 140.32931 | 1349 ft | 124 kts | 152° |
| 2026-05-05 13:58 | 35.82081 | 140.33468 | 1192 ft | 125 kts | 152° |
| 2026-05-05 13:58 | 35.81328 | 140.34015 | 1026 ft | 126 kts | 151° |
| 2026-05-05 13:58 | 35.80562 | 140.34568 | 888 ft | 131 kts | 152° |
| 2026-05-05 13:59 | 35.78954 | 140.35740 | 517 ft | 137 kts | 152° |
| 2026-05-05 13:59 | 35.78141 | 140.36325 | 358 ft | 134 kts | 150° |
| 2026-05-05 14:00 | 35.76572 | 140.37458 | 150 ft | 115 kts | 148° |
| 2026-05-05 14:00 | 35.76166 | 140.37750 | 149 ft | 85 kts | 149° |
| 2026-05-05 14:00 | 35.75680 | 140.38098 | 152 ft | 40 kts | 148° |
| 2026-05-05 14:00 | 35.75532 | 140.38276 | 150 ft | 15 kts | 123° |
| 2026-05-05 14:01 | 35.75488 | 140.38365 | 150 ft | 8 kts | 120° |
| 2026-05-05 14:01 | 35.75454 | 140.38436 | 150 ft | 11 kts | 120° |
| 2026-05-05 14:01 | 35.75427 | 140.38494 | 149 ft | 13 kts | 120° |
| 2026-05-05 14:01 | 35.75384 | 140.38566 | 149 ft | 10 kts | 142° |
| 2026-05-05 14:02 | 35.75321 | 140.38617 | 149 ft | 9 kts | 146° |
| 2026-05-05 14:02 | 35.75318 | 140.38643 | 149 ft | 5 kts | 73° |
| 2026-05-05 14:02 | 35.75358 | 140.38687 | 149 ft | 9 kts | 29° |
| 2026-05-05 14:02 | 35.75425 | 140.38725 | 149 ft | 12 kts | 24° |
| 2026-05-05 14:03 | 35.75507 | 140.38770 | 149 ft | 14 kts | 24° |
| 2026-05-05 14:03 | 35.75602 | 140.38822 | 149 ft | 16 kts | 24° |
| 2026-05-05 14:03 | 35.75678 | 140.38863 | 149 ft | 6 kts | 22° |
| 2026-05-05 14:03 | 35.75727 | 140.38859 | 149 ft | 8 kts | 336° |
| 2026-05-05 14:04 | 35.75780 | 140.38818 | 149 ft | 9 kts | 334° |
| 2026-05-05 14:04 | 35.75841 | 140.38832 | 149 ft | 10 kts | 22° |
| 2026-05-05 14:04 | 35.75914 | 140.38873 | 149 ft | 13 kts | 25° |
| 2026-05-05 14:04 | 35.76000 | 140.38921 | 149 ft | 15 kts | 24° |
| 2026-05-05 14:05 | 35.76101 | 140.38976 | 149 ft | 17 kts | 24° |
| 2026-05-05 14:05 | 35.76214 | 140.39039 | 149 ft | 19 kts | 24° |
| 2026-05-05 14:05 | 35.76337 | 140.39107 | 149 ft | 20 kts | 24° |
| 2026-05-05 14:05 | 35.76438 | 140.39162 | 149 ft | 8 kts | 24° |
| 2026-05-05 14:06 | 35.76470 | 140.39215 | 149 ft | 9 kts | 93° |
| 2026-05-05 14:06 | 35.76470 | 140.39296 | 149 ft | 7 kts | 91° |
| 2026-05-05 14:06 | 35.76452 | 140.39357 | 149 ft | 4 kts | 114° |
| 2026-05-05 14:06 | 35.76443 | 140.39382 | 149 ft | 0 kts | 114° |